Accueil
METAR-TAF:

METAR-TAF

Aéroports :

Aéroport international de Kunming Changshui

Kunming, Chine

latitude: 25-01N, longitude: 102-41E, altitude: 1892 m

Observation

Le bulletin a été fait il y a 17 minutes, à 14:00 UTC
Vent 8 kt de sud/sud-ouest
Température 10°C
Humidité 71%
Pression 1021 hPa
Visibilité 10 km ou plus
Nuages épars à une hauteur de 4300 ft

METAR: ZPPP 181400Z 20004MPS 9999 SCT043 10/05 Q1021 NOSIG

Heure: 22:17 (14:17 UTC)

Prévision

Le bulletin a été fait il y a 7 heures et 8 minutes, à 07:09 UTC
Prévision valable du 18 à 12 UTC au 19 à 12 UTC
Vent 10 kt de sud-ouest
Visibilité 10 km ou plus
Nuages épars à une hauteur de 2600 ft

TAF: ZPPP 180709Z 1812/1912 23005MPS 9999 SCT026 TX16/1908Z TN05/1823Z

Observations et prévisions météorologiques de plus de 4000 aéroports (messages METAR et TAF).

Les stations disponibles sont représentées par des disques jaunes et rouges sur la carte.

Passer la souris dessus pour voir le nom de la station.

Cliquer dessus pour voir les observations et prévisions météorologiques.

Pour changer de carte: cliquez sur les boutons verts avec une croix noire pour zoomer, sur le bouton vert avec un tiret pour effectuer un zoom arrière, ou sur les flèches vertes pour les cartes adjacentes.


METAR-TAF: